Time;durP1;ratioP1;P1;durP2;ratioP2;P2;SDS_P1;SDS_P2;PMS_P1;PMS_P2;Temp;Humidity;BMP_temperature;BMP_pressure;BME280_temperature;BME280_humidity;BME280_pressure;Samples;Min_cycle;Max_cycle;Signal;HPM_P1;HPM_P2
2022/08/26 00:02:02;;;;;;;;;4.00;3.00;;;;;;;;5063452;28;45794;-79
2022/08/26 00:04:28;;;;;;;;;3.00;1.67;;;;;;;;5046544;28;44900;-79
2022/08/26 00:06:54;;;;;;;;;1.67;1.33;;;;;;;;5066191;28;45436;-80
2022/08/26 00:09:19;;;;;;;;;2.67;2.67;;;;;;;;5049127;28;45423;-80
2022/08/26 00:11:45;;;;;;;;;4.33;3.33;;;;;;;;5062102;28;45439;-80
2022/08/26 00:14:11;;;;;;;;;2.00;2.00;;;;;;;;5027848;28;45953;-80
2022/08/26 00:16:36;;;;;;;;;1.67;1.67;;;;;;;;5063984;28;45348;-78
2022/08/26 00:19:02;;;;;;;;;0.00;0.00;;;;;;;;5047131;28;45348;-79
2022/08/26 00:21:27;;;;;;;;;2.00;2.00;;;;;;;;5069257;28;45630;-78
2022/08/26 00:23:52;;;;;;;;;2.00;2.00;;;;;;;;5056473;28;45478;-78
2022/08/26 00:26:17;;;;;;;;;3.00;3.00;;;;;;;;5058712;28;45699;-79
2022/08/26 00:28:43;;;;;;;;;4.00;3.00;;;;;;;;5027827;28;45398;-79
2022/08/26 00:31:08;;;;;;;;;3.00;3.00;;;;;;;;5043930;28;45578;-79
2022/08/26 00:33:33;;;;;;;;;2.00;2.00;;;;;;;;5052017;28;45484;-80
2022/08/26 00:36:00;;;;;;;;;2.00;2.00;;;;;;;;5062479;28;45321;-77
2022/08/26 00:38:25;;;;;;;;;3.00;2.00;;;;;;;;5044250;28;45504;-79
2022/08/26 00:40:52;;;;;;;;;4.33;3.00;;;;;;;;5063015;28;45351;-77
2022/08/26 00:43:18;;;;;;;;;3.67;3.67;;;;;;;;5065131;28;45848;-78
2022/08/26 00:45:51;;;;;;;;;6.00;4.67;;;;;;;;5064329;28;45489;-79
2022/08/26 00:48:18;;;;;;;;;3.67;3.67;;;;;;;;5064901;28;45409;-78
2022/08/26 00:51:13;;;;;;;;;4.33;4.33;;;;;;;;5046715;28;45431;-78
2022/08/26 00:53:42;;;;;;;;;3.00;3.00;;;;;;;;5040385;28;45408;-77
2022/08/26 00:56:19;;;;;;;;;3.67;1.67;;;;;;;;5061503;28;45374;-79
2022/08/26 00:58:46;;;;;;;;;2.67;2.67;;;;;;;;5043873;28;45445;-78
2022/08/26 01:01:12;;;;;;;;;2.00;2.00;;;;;;;;5045504;28;45426;-78
2022/08/26 01:03:39;;;;;;;;;2.67;2.67;;;;;;;;5053714;28;44823;-78
2022/08/26 01:06:05;;;;;;;;;3.00;3.00;;;;;;;;5044297;28;46902;-79
2022/08/26 01:08:31;;;;;;;;;4.67;4.67;;;;;;;;5064717;28;46446;-81
2022/08/26 01:10:58;;;;;;;;;3.00;3.00;;;;;;;;5064570;28;45343;-79
2022/08/26 01:13:24;;;;;;;;;3.00;3.00;;;;;;;;5047598;28;45476;-81
2022/08/26 01:15:54;;;;;;;;;3.33;3.33;;;;;;;;5063774;28;46275;-79
2022/08/26 01:18:19;;;;;;;;;5.00;4.00;;;;;;;;5051293;28;45505;-79
2022/08/26 01:20:57;;;;;;;;;3.33;3.33;;;;;;;;5046546;28;45372;-79
2022/08/26 01:23:25;;;;;;;;;3.00;3.00;;;;;;;;5062534;28;45541;-79
2022/08/26 01:25:53;;;;;;;;;3.00;3.00;;;;;;;;5063471;28;45501;-77
2022/08/26 01:28:21;;;;;;;;;6.67;5.00;;;;;;;;5061171;28;45943;-78
2022/08/26 01:30:48;;;;;;;;;6.00;4.33;;;;;;;;5063720;28;45349;-78
2022/08/26 01:33:16;;;;;;;;;4.33;4.33;;;;;;;;5062862;28;45292;-78
2022/08/26 01:35:42;;;;;;;;;5.00;5.00;;;;;;;;5053334;28;45532;-79
2022/08/26 01:38:08;;;;;;;;;6.00;6.00;;;;;;;;5047452;28;45474;-78
2022/08/26 01:40:36;;;;;;;;;4.00;4.00;;;;;;;;5066211;28;45440;-78
2022/08/26 01:43:02;;;;;;;;;6.00;6.00;;;;;;;;5046376;28;45766;-80
2022/08/26 01:45:29;;;;;;;;;6.67;5.33;;;;;;;;5066187;28;45300;-79
2022/08/26 01:47:57;;;;;;;;;8.00;6.67;;;;;;;;5056342;28;45496;-79
2022/08/26 01:50:34;;;;;;;;;10.00;7.67;;;;;;;;5063870;28;45564;-80
2022/08/26 01:53:01;;;;;;;;;7.67;6.67;;;;;;;;5066098;28;45347;-78
2022/08/26 01:55:27;;;;;;;;;3.33;3.33;;;;;;;;5040991;28;46172;-78
2022/08/26 01:57:54;;;;;;;;;7.00;4.00;;;;;;;;5055868;28;45285;-79
2022/08/26 02:00:20;;;;;;;;;9.67;8.67;;;;;;;;5064851;28;45232;-78
2022/08/26 02:02:49;;;;;;;;;8.33;6.00;;;;;;;;5063239;28;45359;-80
2022/08/26 02:05:17;;;;;;;;;6.00;6.00;;;;;;;;5062003;28;46388;-79
2022/08/26 02:07:43;;;;;;;;;8.33;8.00;;;;;;;;5064324;28;45394;-80
2022/08/26 02:10:09;;;;;;;;;8.33;6.33;;;;;;;;5046647;28;45361;-80
2022/08/26 02:12:35;;;;;;;;;7.00;7.00;;;;;;;;5065267;28;45346;-78
2022/08/26 02:15:03;;;;;;;;;12.67;11.67;;;;;;;;5043205;28;45439;-79
2022/08/26 02:17:32;;;;;;;;;9.00;8.67;;;;;;;;5044523;28;45374;-78
2022/08/26 02:19:57;;;;;;;;;11.00;8.33;;;;;;;;5060356;28;45473;-77
2022/08/26 02:22:22;;;;;;;;;9.33;8.33;;;;;;;;5061366;28;45515;-77
2022/08/26 02:24:51;;;;;;;;;9.33;8.33;;;;;;;;5037291;28;47153;-79
2022/08/26 02:27:20;;;;;;;;;13.67;9.33;;;;;;;;5060325;28;45414;-76
2022/08/26 02:29:52;;;;;;;;;8.33;7.00;;;;;;;;5062503;28;45466;-77
2022/08/26 02:32:17;;;;;;;;;8.67;7.67;;;;;;;;5044506;28;45407;-76
2022/08/26 02:34:44;;;;;;;;;11.67;10.67;;;;;;;;5063145;28;45260;-77
2022/08/26 02:37:10;;;;;;;;;13.33;12.33;;;;;;;;5045930;28;45680;-76
2022/08/26 02:39:36;;;;;;;;;11.00;9.00;;;;;;;;5063786;28;45295;-77
2022/08/26 02:42:02;;;;;;;;;11.00;9.33;;;;;;;;5064823;28;45739;-76
2022/08/26 02:44:28;;;;;;;;;10.00;10.00;;;;;;;;5055050;28;45307;-78
2022/08/26 02:46:53;;;;;;;;;12.67;10.67;;;;;;;;5064285;28;45225;-78
2022/08/26 02:49:19;;;;;;;;;9.00;9.00;;;;;;;;5035402;28;45755;-78
2022/08/26 02:51:45;;;;;;;;;10.00;9.33;;;;;;;;5046188;28;46197;-76
2022/08/26 02:54:11;;;;;;;;;10.67;9.00;;;;;;;;5036275;28;46527;-78
2022/08/26 02:56:37;;;;;;;;;15.33;12.33;;;;;;;;5045409;28;44770;-77
2022/08/26 02:59:02;;;;;;;;;14.00;10.33;;;;;;;;5067260;28;45794;-75
2022/08/26 03:01:31;;;;;;;;;10.67;10.67;;;;;;;;5048203;28;45774;-76
2022/08/26 03:03:56;;;;;;;;;11.33;10.33;;;;;;;;5046319;28;45435;-76
2022/08/26 03:06:23;;;;;;;;;13.33;12.33;;;;;;;;5064601;28;45651;-77
2022/08/26 03:08:48;;;;;;;;;13.33;12.33;;;;;;;;5045721;28;45451;-76
2022/08/26 03:11:13;;;;;;;;;15.67;14.33;;;;;;;;5065687;28;45371;-76
2022/08/26 03:13:39;;;;;;;;;13.67;13.67;;;;;;;;5064908;28;45506;-77
2022/08/26 03:16:05;;;;;;;;;12.00;12.00;;;;;;;;5066336;28;45402;-78
2022/08/26 03:18:30;;;;;;;;;12.00;11.00;;;;;;;;5048508;28;45513;-77
2022/08/26 03:20:56;;;;;;;;;14.33;11.67;;;;;;;;5028373;28;45734;-78
2022/08/26 03:23:22;;;;;;;;;14.67;12.33;;;;;;;;5032408;28;46460;-77
2022/08/26 03:25:48;;;;;;;;;10.00;9.67;;;;;;;;5066305;28;45466;-76
2022/08/26 03:28:14;;;;;;;;;15.33;13.67;;;;;;;;5065502;28;44749;-78
2022/08/26 03:30:39;;;;;;;;;17.33;16.33;;;;;;;;5049754;28;45972;-78
2022/08/26 03:33:05;;;;;;;;;12.33;11.67;;;;;;;;5068890;28;45510;-77
2022/08/26 03:35:31;;;;;;;;;17.67;12.67;;;;;;;;5059970;28;45243;-76
2022/08/26 03:37:57;;;;;;;;;13.33;12.33;;;;;;;;5052269;28;45379;-77
2022/08/26 03:40:23;;;;;;;;;12.33;12.33;;;;;;;;5061180;28;45527;-77
2022/08/26 03:42:48;;;;;;;;;14.33;11.33;;;;;;;;5066258;28;45797;-76
2022/08/26 03:45:14;;;;;;;;;9.33;9.33;;;;;;;;5052443;28;44851;-78
2022/08/26 03:47:39;;;;;;;;;10.67;10.67;;;;;;;;5065711;28;45705;-77
2022/08/26 03:50:06;;;;;;;;;13.67;12.00;;;;;;;;5063031;28;45632;-79
2022/08/26 03:52:32;;;;;;;;;14.67;12.67;;;;;;;;5044357;28;46584;-78
2022/08/26 03:54:57;;;;;;;;;13.33;10.67;;;;;;;;5055929;28;45878;-79
2022/08/26 03:57:23;;;;;;;;;15.00;15.00;;;;;;;;5032165;28;46505;-81
2022/08/26 03:59:48;;;;;;;;;16.00;13.00;;;;;;;;5060853;28;45716;-78
2022/08/26 04:02:14;;;;;;;;;12.67;12.00;;;;;;;;5039725;28;47996;-79
2022/08/26 04:04:39;;;;;;;;;13.33;12.00;;;;;;;;5034725;28;44881;-78
2022/08/26 04:07:04;;;;;;;;;17.33;14.00;;;;;;;;5029552;28;45491;-77
2022/08/26 04:09:30;;;;;;;;;13.00;12.00;;;;;;;;5030205;28;45967;-78
2022/08/26 04:11:57;;;;;;;;;15.00;12.33;;;;;;;;5049292;28;46746;-78
2022/08/26 04:14:24;;;;;;;;;13.67;12.33;;;;;;;;5041164;28;45792;-77
2022/08/26 04:16:50;;;;;;;;;15.00;11.00;;;;;;;;5040906;28;45752;-77
2022/08/26 04:19:16;;;;;;;;;10.67;10.67;;;;;;;;5052024;28;44826;-76
2022/08/26 04:21:42;;;;;;;;;13.00;10.33;;;;;;;;5029164;28;47879;-77
2022/08/26 04:24:08;;;;;;;;;18.33;16.00;;;;;;;;5057551;28;45513;-77
2022/08/26 04:26:36;;;;;;;;;17.67;13.67;;;;;;;;5068207;28;45335;-76
2022/08/26 04:29:02;;;;;;;;;14.00;11.00;;;;;;;;5060757;28;45358;-76
2022/08/26 04:31:28;;;;;;;;;16.67;15.00;;;;;;;;5053016;28;45376;-75
2022/08/26 04:33:55;;;;;;;;;13.00;11.33;;;;;;;;5063956;28;45744;-76
2022/08/26 04:36:22;;;;;;;;;14.67;14.67;;;;;;;;5038020;28;45768;-75
2022/08/26 04:38:49;;;;;;;;;15.00;13.33;;;;;;;;5056466;28;45567;-76
2022/08/26 04:41:15;;;;;;;;;16.33;14.33;;;;;;;;5058915;28;46925;-75
2022/08/26 04:43:40;;;;;;;;;20.00;16.67;;;;;;;;5048978;28;45468;-76
2022/08/26 04:46:06;;;;;;;;;14.67;12.33;;;;;;;;5055162;28;45563;-77
2022/08/26 04:48:32;;;;;;;;;15.67;13.33;;;;;;;;5064860;28;45377;-77
2022/08/26 04:50:58;;;;;;;;;15.33;15.33;;;;;;;;5047339;28;49083;-78
2022/08/26 04:53:24;;;;;;;;;12.67;12.33;;;;;;;;5073716;28;45436;-78
2022/08/26 04:55:49;;;;;;;;;13.33;12.67;;;;;;;;5065896;28;45478;-78
2022/08/26 04:58:16;;;;;;;;;15.33;12.67;;;;;;;;5064295;28;45378;-78
2022/08/26 05:00:42;;;;;;;;;13.67;13.67;;;;;;;;5061115;28;45475;-76
2022/08/26 05:03:07;;;;;;;;;14.67;13.33;;;;;;;;5062252;28;45438;-78
2022/08/26 05:05:32;;;;;;;;;17.00;15.67;;;;;;;;5062553;28;44882;-77
2022/08/26 05:07:58;;;;;;;;;17.00;13.67;;;;;;;;5042321;28;45486;-76
2022/08/26 05:10:23;;;;;;;;;19.00;17.33;;;;;;;;5065197;28;45481;-77
2022/08/26 05:12:48;;;;;;;;;18.33;13.33;;;;;;;;5063417;28;45437;-77
2022/08/26 05:15:14;;;;;;;;;11.00;11.00;;;;;;;;5071005;28;45840;-77
2022/08/26 05:17:39;;;;;;;;;20.67;18.67;;;;;;;;5061332;28;45622;-77
2022/08/26 05:20:05;;;;;;;;;16.67;15.67;;;;;;;;5050952;28;47944;-77
2022/08/26 05:22:30;;;;;;;;;16.67;15.00;;;;;;;;5067867;28;45549;-77
2022/08/26 05:24:55;;;;;;;;;23.33;16.33;;;;;;;;5075916;28;45396;-76
2022/08/26 05:27:20;;;;;;;;;16.67;12.67;;;;;;;;5067355;28;44792;-74
2022/08/26 05:29:47;;;;;;;;;15.67;14.00;;;;;;;;5057357;28;46484;-76
2022/08/26 05:32:12;;;;;;;;;17.33;15.00;;;;;;;;5035945;28;45449;-77
2022/08/26 05:34:37;;;;;;;;;18.33;15.33;;;;;;;;5059218;28;45323;-76
2022/08/26 05:37:04;;;;;;;;;16.67;16.00;;;;;;;;5053413;28;45648;-76
2022/08/26 05:39:31;;;;;;;;;14.67;13.67;;;;;;;;5060719;28;45726;-74
2022/08/26 05:41:56;;;;;;;;;20.00;17.00;;;;;;;;5052193;28;45413;-76
2022/08/26 05:44:21;;;;;;;;;16.67;14.67;;;;;;;;5054070;28;45390;-77
2022/08/26 05:46:48;;;;;;;;;17.67;14.67;;;;;;;;5063017;28;45413;-76
2022/08/26 05:49:14;;;;;;;;;18.33;16.33;;;;;;;;5051451;28;45389;-76
2022/08/26 05:51:41;;;;;;;;;16.00;13.67;;;;;;;;5049676;28;45434;-75
2022/08/26 05:54:07;;;;;;;;;15.33;12.33;;;;;;;;5047008;28;45199;-75
2022/08/26 05:56:32;;;;;;;;;19.00;18.33;;;;;;;;5054778;28;45340;-76
2022/08/26 05:58:57;;;;;;;;;22.33;15.67;;;;;;;;5061030;28;45618;-78
2022/08/26 06:01:25;;;;;;;;;17.33;15.00;;;;;;;;5037416;28;45261;-77
2022/08/26 06:03:52;;;;;;;;;18.33;16.00;;;;;;;;5058364;28;45548;-77
2022/08/26 06:06:18;;;;;;;;;15.33;15.00;;;;;;;;5039456;28;46255;-77
2022/08/26 06:08:44;;;;;;;;;30.67;25.33;;;;;;;;5043700;28;46948;-76
2022/08/26 06:11:11;;;;;;;;;20.00;15.33;;;;;;;;5075221;28;45789;-77
2022/08/26 06:13:38;;;;;;;;;15.67;13.33;;;;;;;;5069704;28;45488;-78
2022/08/26 06:16:07;;;;;;;;;19.67;16.67;;;;;;;;5069979;28;46306;-75
2022/08/26 06:18:38;;;;;;;;;30.33;27.33;;;;;;;;5048329;28;45485;-78
2022/08/26 06:21:12;;;;;;;;;19.33;17.33;;;;;;;;5071595;28;45853;-80
2022/08/26 06:26:49;;;;;;;;;17.67;13.67;;;;;;;;5060355;28;45659;-79
2022/08/26 06:29:14;;;;;;;;;16.00;15.00;;;;;;;;5065544;28;45528;-78
2022/08/26 06:31:40;;;;;;;;;18.00;14.00;;;;;;;;5065317;28;45443;-79
2022/08/26 06:34:06;;;;;;;;;18.67;14.67;;;;;;;;5058264;28;45564;-78
2022/08/26 06:36:32;;;;;;;;;13.67;12.67;;;;;;;;5048595;28;46951;-82
2022/08/26 06:39:03;;;;;;;;;14.00;13.00;;;;;;;;5047597;28;45505;-80
2022/08/26 06:41:30;;;;;;;;;20.00;15.67;;;;;;;;5059089;28;45792;-80
2022/08/26 06:43:56;;;;;;;;;16.00;12.67;;;;;;;;5060002;28;45972;-80
2022/08/26 06:46:23;;;;;;;;;17.33;12.00;;;;;;;;5063702;28;46567;-79
2022/08/26 06:48:49;;;;;;;;;14.00;12.33;;;;;;;;5064522;28;45677;-82
2022/08/26 06:51:22;;;;;;;;;21.33;16.00;;;;;;;;5052665;28;45520;-78
2022/08/26 06:53:48;;;;;;;;;14.33;12.33;;;;;;;;5060197;28;45506;-78
2022/08/26 06:56:21;;;;;;;;;16.67;16.67;;;;;;;;5051516;28;45804;-81
2022/08/26 06:58:46;;;;;;;;;12.67;12.67;;;;;;;;5045515;28;46259;-79
2022/08/26 07:01:21;;;;;;;;;15.67;15.67;;;;;;;;5050009;28;45419;-80
2022/08/26 07:03:48;;;;;;;;;13.67;13.67;;;;;;;;5063528;28;45425;-80
2022/08/26 07:06:14;;;;;;;;;14.00;12.67;;;;;;;;5047773;28;45513;-78
2022/08/26 07:08:42;;;;;;;;;13.33;13.00;;;;;;;;5067526;28;47346;-79
2022/08/26 07:11:26;;;;;;;;;15.00;13.00;;;;;;;;5062825;28;45343;-80
2022/08/26 07:13:52;;;;;;;;;16.33;13.33;;;;;;;;5071535;28;44761;-77
2022/08/26 07:16:20;;;;;;;;;12.33;12.33;;;;;;;;5067775;28;45512;-85
2022/08/26 07:18:47;;;;;;;;;12.00;9.33;;;;;;;;5066560;28;45712;-79
2022/08/26 07:21:14;;;;;;;;;13.67;13.67;;;;;;;;5043228;28;45486;-79
2022/08/26 07:23:39;;;;;;;;;13.33;12.00;;;;;;;;5046488;28;45429;-79
2022/08/26 07:26:06;;;;;;;;;13.00;12.00;;;;;;;;5043617;28;45427;-76
2022/08/26 07:28:31;;;;;;;;;10.67;10.67;;;;;;;;5057214;28;45502;-77
2022/08/26 07:30:59;;;;;;;;;10.33;8.67;;;;;;;;5054913;28;45444;-82
2022/08/26 07:33:24;;;;;;;;;10.33;9.33;;;;;;;;5043995;28;45764;-76
2022/08/26 07:35:49;;;;;;;;;10.00;9.00;;;;;;;;5065809;28;46047;-75
2022/08/26 07:38:14;;;;;;;;;12.67;11.33;;;;;;;;5052898;28;45747;-77
2022/08/26 07:40:40;;;;;;;;;11.33;9.67;;;;;;;;5054831;28;45556;-74
2022/08/26 07:43:06;;;;;;;;;9.33;8.67;;;;;;;;5063870;28;45744;-86
2022/08/26 07:45:32;;;;;;;;;9.67;9.67;;;;;;;;5070976;28;45359;-79
2022/08/26 07:47:59;;;;;;;;;14.00;12.00;;;;;;;;5057605;28;45534;-79
2022/08/26 07:50:26;;;;;;;;;11.67;10.33;;;;;;;;5060960;28;45454;-83
2022/08/26 07:52:52;;;;;;;;;11.67;11.67;;;;;;;;5049527;28;45451;-77
2022/08/26 07:55:17;;;;;;;;;10.00;9.00;;;;;;;;5060653;28;46012;-77
2022/08/26 07:57:53;;;;;;;;;10.33;10.00;;;;;;;;5061570;28;45788;-83
2022/08/26 08:00:19;;;;;;;;;8.25;8.25;;;;;;;;5056271;28;45790;-76
2022/08/26 08:02:48;;;;;;;;;10.25;8.75;;;;;;;;5066231;28;45482;-80
2022/08/26 08:05:18;;;;;;;;;8.33;8.33;;;;;;;;5067555;28;44845;-80
2022/08/26 08:07:47;;;;;;;;;9.00;7.50;;;;;;;;5062387;28;45537;-78
2022/08/26 08:10:19;;;;;;;;;7.67;6.00;;;;;;;;5037790;28;45559;-79
2022/08/26 08:12:55;;;;;;;;;10.75;9.00;;;;;;;;5064247;28;45508;-78
2022/08/26 08:15:23;;;;;;;;;9.00;7.67;;;;;;;;5041716;28;46392;-79
2022/08/26 08:17:49;;;;;;;;;10.00;8.33;;;;;;;;5051020;28;46591;-77
2022/08/26 08:20:16;;;;;;;;;9.00;8.67;;;;;;;;5040684;28;45410;-78
2022/08/26 08:22:43;;;;;;;;;5.50;5.50;;;;;;;;5067059;28;45587;-76
2022/08/26 08:25:15;;;;;;;;;11.33;10.33;;;;;;;;5043654;28;45561;-84
2022/08/26 08:27:47;;;;;;;;;9.67;8.67;;;;;;;;5040285;28;45621;-80
2022/08/26 08:30:13;;;;;;;;;9.67;9.67;;;;;;;;5045024;28;45841;-76
2022/08/26 08:32:39;;;;;;;;;11.33;11.33;;;;;;;;5055429;28;45418;-77
2022/08/26 08:35:09;;;;;;;;;7.50;7.50;;;;;;;;5047082;28;45710;-77
2022/08/26 08:37:35;;;;;;;;;11.50;10.25;;;;;;;;5046555;28;45329;-78
2022/08/26 08:40:02;;;;;;;;;9.67;8.67;;;;;;;;5068391;28;45494;-78
2022/08/26 08:42:33;;;;;;;;;8.00;6.75;;;;;;;;5038726;28;45355;-78
2022/08/26 08:45:02;;;;;;;;;6.75;6.50;;;;;;;;5039787;28;45786;-81
2022/08/26 08:47:33;;;;;;;;;7.00;7.00;;;;;;;;5063974;28;45666;-79
2022/08/26 08:50:03;;;;;;;;;8.25;6.00;;;;;;;;5060258;28;45403;-77
2022/08/26 08:52:34;;;;;;;;;7.75;7.00;;;;;;;;5041519;28;45511;-79
2022/08/26 08:55:01;;;;;;;;;8.00;6.00;;;;;;;;5063169;28;45709;-80
2022/08/26 08:57:31;;;;;;;;;6.50;6.50;;;;;;;;5043492;28;46055;-78
2022/08/26 09:00:01;;;;;;;;;5.50;5.50;;;;;;;;5066735;28;46145;-81
2022/08/26 09:02:35;;;;;;;;;7.25;6.00;;;;;;;;5081591;28;45362;-81
2022/08/26 09:05:12;;;;;;;;;6.00;6.00;;;;;;;;5070334;28;45576;-82
2022/08/26 09:07:42;;;;;;;;;5.50;5.50;;;;;;;;5050849;28;47484;-83
2022/08/26 09:10:19;;;;;;;;;6.00;5.00;;;;;;;;5067469;28;44748;-82
2022/08/26 09:12:46;;;;;;;;;6.00;6.00;;;;;;;;5057568;28;45359;-79
2022/08/26 09:15:14;;;;;;;;;6.25;5.25;;;;;;;;5077516;28;45525;-81
2022/08/26 09:17:40;;;;;;;;;6.00;4.75;;;;;;;;5062647;28;45608;-82
2022/08/26 09:20:17;;;;;;;;;8.00;8.00;;;;;;;;5061399;28;45369;-83
2022/08/26 09:22:42;;;;;;;;;9.00;7.75;;;;;;;;5047644;28;45526;-80
2022/08/26 09:25:11;;;;;;;;;3.75;3.75;;;;;;;;5050743;28;46228;-82
2022/08/26 09:27:37;;;;;;;;;6.50;6.50;;;;;;;;5062143;28;45343;-78
2022/08/26 09:30:04;;;;;;;;;6.25;5.25;;;;;;;;5048457;28;45316;-79
2022/08/26 09:33:07;;;;;;;;;6.25;6.25;;;;;;;;5059534;28;45413;-91
2022/08/26 09:35:34;;;;;;;;;8.25;5.25;;;;;;;;5042568;28;45329;-80
2022/08/26 09:38:00;;;;;;;;;5.75;5.25;;;;;;;;5044414;28;45922;-80
2022/08/26 09:40:33;;;;;;;;;7.75;5.25;;;;;;;;5025766;28;45456;-81
2022/08/26 09:43:14;;;;;;;;;7.50;6.00;;;;;;;;5030455;28;45792;-81
2022/08/26 09:45:41;;;;;;;;;4.50;4.50;;;;;;;;5030983;28;45902;-80
2022/08/26 09:48:07;;;;;;;;;6.50;5.25;;;;;;;;5030665;28;45815;-80
2022/08/26 09:50:59;;;;;;;;;7.25;6.00;;;;;;;;5034782;28;45640;-79
2022/08/26 09:53:27;;;;;;;;;5.75;5.75;;;;;;;;5063287;27;45403;-81
2022/08/26 10:05:40;;;;;;;;;8.00;6.33;;;;;;;;5041220;28;46236;-80
2022/08/26 10:08:19;;;;;;;;;7.25;7.25;;;;;;;;5040332;28;45700;-79
2022/08/26 10:14:30;;;;;;;;;;;;;;;;;;;;;
2022/08/26 10:17:50;;;;;;;;;;;;;;;;;;;;;
2022/08/26 10:20:55;;;;;;;;;7.75;6.75;;;;;;;;5045505;28;72220;-79
2022/08/26 10:33:33;;;;;;;;;;;;;;;;;;;;;
2022/08/26 10:40:00;;;;;;;;;;;;;;;;;;;;;
2022/08/26 10:49:54;;;;;;;;;5.00;5.00;;;;;;;;4828905;29;46042;-80
2022/08/26 10:52:47;;;;;;;;;4.75;4.50;;;;;;;;4859774;29;46046;-81
2022/08/26 10:55:52;;;;;;;;;;;;;;;;;;;;;
2022/08/26 11:01:51;;;;;;;;;5.00;5.00;;;;;;;;4860048;29;45874;-79
2022/08/26 11:10:48;;;;;;;;;4.25;4.25;;;;;;;;4864483;29;45964;-79
2022/08/26 11:13:50;;;;;;;;;4.25;4.25;;;;;;;;4893625;28;46219;-81
2022/08/26 11:16:44;;;;;;;;;6.25;4.50;;;;;;;;4913872;28;45537;-79
2022/08/26 11:22:49;;;;;;;;;4.00;4.00;;;;;;;;4967671;28;45568;-78
2022/08/26 11:28:48;;;;;;;;;4.50;4.50;;;;;;;;5045502;28;45607;-79
2022/08/26 11:35:12;;;;;;;;;5.50;5.50;;;;;;;;4974285;28;45774;-80
2022/08/26 11:41:54;;;;;;;;;;;;;;;;;;;;;
2022/08/26 11:50:51;;;;;;;;;5.00;5.00;;;;;;;;4993168;28;45807;-80
2022/08/26 11:53:24;;;;;;;;;7.00;5.00;;;;;;;;5034015;28;45436;-79
2022/08/26 11:56:15;;;;;;;;;;;;;;;;;;;;;
2022/08/26 11:59:03;;;;;;;;;25.00;21.33;;;;;;;;5019010;28;72319;-80
2022/08/26 12:14:29;;;;;;;;;5.00;5.00;;;;;;;;4956717;28;45771;-82
2022/08/26 12:17:07;;;;;;;;;7.67;7.67;;;;;;;;4966667;28;45625;-83
2022/08/26 12:19:32;;;;;;;;;5.25;4.00;;;;;;;;4966476;28;45713;-83
2022/08/26 12:22:37;;;;;;;;;4.00;4.00;;;;;;;;5032063;28;45542;-84
2022/08/26 12:25:12;;;;;;;;;4.50;4.50;;;;;;;;4985994;28;46110;-82
2022/08/26 12:27:39;;;;;;;;;3.25;3.25;;;;;;;;5045657;28;44867;-82
2022/08/26 12:30:21;;;;;;;;;4.00;3.00;;;;;;;;5062642;28;45680;-81
2022/08/26 12:33:29;;;;;;;;;3.67;3.67;;;;;;;;5041964;28;46517;-83
2022/08/26 12:35:54;;;;;;;;;4.33;3.33;;;;;;;;5052052;28;45781;-83
2022/08/26 12:38:39;;;;;;;;;3.00;2.00;;;;;;;;5035407;28;45472;-81
2022/08/26 12:41:46;;;;;;;;;;;;;;;;;;;;;
2022/08/26 12:45:05;;;;;;;;;2.00;2.00;;;;;;;;5036565;28;45539;-83
2022/08/26 12:47:32;;;;;;;;;2.00;2.00;;;;;;;;4952726;28;47964;-81
2022/08/26 12:49:58;;;;;;;;;3.00;3.00;;;;;;;;4984854;28;45566;-80
2022/08/26 12:52:31;;;;;;;;;1.00;1.00;;;;;;;;5041609;28;45407;-77
2022/08/26 12:55:18;;;;;;;;;4.00;4.00;;;;;;;;5035655;28;47178;-85
2022/08/26 12:58:13;;;;;;;;;4.00;4.00;;;;;;;;5068123;28;45457;-86
2022/08/26 13:00:49;;;;;;;;;3.00;3.00;;;;;;;;5039011;28;45482;-77
2022/08/26 13:03:53;;;;;;;;;3.00;3.00;;;;;;;;5019664;28;45738;-81
2022/08/26 13:10:29;;;;;;;;;2.50;2.50;;;;;;;;5044278;28;45505;-79
2022/08/26 13:16:12;;;;;;;;;3.25;3.25;;;;;;;;5041543;28;45543;-81
2022/08/26 13:35:05;;;;;;;;;3.00;3.00;;;;;;;;4836096;29;45560;-81
2022/08/26 13:38:16;;;;;;;;;;;;;;;;;;;;;
2022/08/26 13:40:54;;;;;;;;;3.00;3.00;;;;;;;;4812364;29;67279;-80
2022/08/26 13:43:31;;;;;;;;;3.00;3.00;;;;;;;;4876597;29;46068;-80
2022/08/26 13:46:08;;;;;;;;;5.00;5.00;;;;;;;;4909757;28;45743;-82
2022/08/26 13:52:09;;;;;;;;;3.00;3.00;;;;;;;;4895046;28;45473;-82
2022/08/26 13:54:56;;;;;;;;;3.00;3.00;;;;;;;;4948703;28;45632;-81
2022/08/26 13:57:39;;;;;;;;;2.75;2.75;;;;;;;;4941295;28;45872;-81
2022/08/26 14:00:06;;;;;;;;;4.00;4.00;;;;;;;;4964004;28;45781;-80
2022/08/26 14:02:32;;;;;;;;;4.00;4.00;;;;;;;;4971462;28;45369;-80
2022/08/26 14:05:11;;;;;;;;;3.50;2.25;;;;;;;;5046138;28;45566;-81
2022/08/26 14:07:49;;;;;;;;;3.00;3.00;;;;;;;;5051418;28;45584;-81
2022/08/26 14:13:45;;;;;;;;;2.00;2.00;;;;;;;;5021628;28;45578;-79
2022/08/26 14:16:32;;;;;;;;;4.25;2.75;;;;;;;;5046584;28;45810;-82
2022/08/26 14:19:19;;;;;;;;;2.75;2.75;;;;;;;;5041512;28;45469;-79
2022/08/26 14:28:48;;;;;;;;;;;;;;;;;;;;;
2022/08/26 14:32:08;;;;;;;;;;;;;;;;;;;;;
2022/08/26 14:34:53;;;;;;;;;4.25;3.25;;;;;;;;4906709;28;72175;-79
2022/08/26 14:38:20;;;;;;;;;5.25;3.75;;;;;;;;4933798;28;45741;-81
2022/08/26 14:41:40;;;;;;;;;;;;;;;;;;;;;
2022/08/26 14:44:22;;;;;;;;;5.00;4.00;;;;;;;;4913499;28;73873;-81
2022/08/26 14:47:03;;;;;;;;;2.25;2.25;;;;;;;;4907511;28;45686;-81
2022/08/26 14:56:43;;;;;;;;;;;;;;;;;;;;;
2022/08/26 14:59:20;;;;;;;;;4.50;4.00;;;;;;;;4953557;28;71900;-81
2022/08/26 15:01:51;;;;;;;;;3.50;3.50;;;;;;;;4967579;28;45448;-81
2022/08/26 15:04:23;;;;;;;;;4.00;4.00;;;;;;;;4966830;28;45986;-81
2022/08/26 15:07:02;;;;;;;;;3.00;3.00;;;;;;;;4969441;28;45811;-80
2022/08/26 15:09:35;;;;;;;;;4.25;4.25;;;;;;;;4961615;28;45470;-80
2022/08/26 15:12:12;;;;;;;;;5.00;4.00;;;;;;;;5019784;28;45530;-80
2022/08/26 15:14:47;;;;;;;;;4.25;4.25;;;;;;;;5050313;28;45509;-80
2022/08/26 15:21:02;;;;;;;;;3.00;3.00;;;;;;;;5018504;28;45623;-79
2022/08/26 15:23:30;;;;;;;;;2.50;2.50;;;;;;;;5031724;28;45671;-81
2022/08/26 15:26:10;;;;;;;;;3.75;3.75;;;;;;;;5060790;28;45724;-81
2022/08/26 15:28:45;;;;;;;;;7.75;3.00;;;;;;;;5042505;28;45621;-81
2022/08/26 15:31:38;;;;;;;;;4.75;4.75;;;;;;;;5051362;28;45541;-80
2022/08/26 15:34:44;;;;;;;;;3.00;3.00;;;;;;;;5020663;28;45962;-81
2022/08/26 15:37:42;;;;;;;;;2.50;2.50;;;;;;;;4957808;28;45942;-80
2022/08/26 15:44:38;;;;;;;;;;;;;;;;;;;;;
2022/08/26 15:47:30;;;;;;;;;;;;;;;;;;;;;
2022/08/26 15:57:04;;;;;;;;;6.50;5.00;;;;;;;;4867624;29;45458;-80
2022/08/26 15:59:51;;;;;;;;;;;;;;;;;;;;;
2022/08/26 16:02:41;;;;;;;;;3.25;3.00;;;;;;;;4917749;28;74023;-80
2022/08/26 16:05:19;;;;;;;;;3.00;3.00;;;;;;;;4883477;28;46690;-80
2022/08/26 16:07:53;;;;;;;;;1.50;1.50;;;;;;;;4913732;28;45448;-81
2022/08/26 16:10:54;;;;;;;;;1.75;1.75;;;;;;;;4986101;28;45816;-81
2022/08/26 16:13:19;;;;;;;;;3.00;3.00;;;;;;;;4978721;28;45862;-82
2022/08/26 16:15:56;;;;;;;;;2.75;2.75;;;;;;;;4987484;28;45327;-81
2022/08/26 16:18:56;;;;;;;;;2.25;2.25;;;;;;;;4971404;28;45629;-80
2022/08/26 16:22:00;;;;;;;;;2.00;2.00;;;;;;;;5016296;28;46288;-83
2022/08/26 16:24:26;;;;;;;;;3.00;3.00;;;;;;;;5007785;28;45558;-82
2022/08/26 16:26:53;;;;;;;;;2.75;2.75;;;;;;;;5032025;28;45562;-80
2022/08/26 16:29:18;;;;;;;;;2.75;1.75;;;;;;;;5024281;28;45380;-81
2022/08/26 16:31:44;;;;;;;;;3.00;3.00;;;;;;;;5021183;28;46226;-80
2022/08/26 16:34:09;;;;;;;;;3.00;3.00;;;;;;;;5030499;28;45483;-82
2022/08/26 16:36:36;;;;;;;;;2.75;2.75;;;;;;;;5026892;28;46114;-82
2022/08/26 16:39:02;;;;;;;;;2.00;2.00;;;;;;;;5029047;28;45518;-81
2022/08/26 16:41:28;;;;;;;;;4.00;3.00;;;;;;;;5024674;28;45532;-81
2022/08/26 16:43:53;;;;;;;;;4.00;3.00;;;;;;;;5020155;28;47650;-81
2022/08/26 16:46:20;;;;;;;;;2.00;2.00;;;;;;;;5031310;28;45784;-83
2022/08/26 16:48:47;;;;;;;;;4.75;3.00;;;;;;;;5020487;28;45737;-81
2022/08/26 16:51:14;;;;;;;;;2.00;2.00;;;;;;;;5014585;28;45488;-81
2022/08/26 16:53:40;;;;;;;;;3.25;3.00;;;;;;;;5020446;28;45491;-80
2022/08/26 16:56:10;;;;;;;;;5.00;3.25;;;;;;;;5020028;28;46688;-82
2022/08/26 16:58:35;;;;;;;;;3.00;3.00;;;;;;;;5025978;28;45520;-82
2022/08/26 17:01:01;;;;;;;;;3.50;3.00;;;;;;;;5027445;28;45938;-80
2022/08/26 17:03:29;;;;;;;;;3.75;2.50;;;;;;;;5012664;28;46816;-81
2022/08/26 17:05:54;;;;;;;;;10.00;9.00;;;;;;;;5020582;28;46761;-80
2022/08/26 17:08:19;;;;;;;;;7.00;4.00;;;;;;;;5024399;28;47198;-79
2022/08/26 17:10:45;;;;;;;;;4.00;4.00;;;;;;;;5026466;28;46058;-79
2022/08/26 17:13:16;;;;;;;;;3.25;3.00;;;;;;;;5026029;28;45527;-83
2022/08/26 17:15:44;;;;;;;;;2.50;2.50;;;;;;;;5010625;28;45423;-82
2022/08/26 17:18:10;;;;;;;;;3.25;3.25;;;;;;;;5004377;28;45473;-81
2022/08/26 17:20:35;;;;;;;;;3.25;2.50;;;;;;;;5026459;28;46073;-81
2022/08/26 17:23:00;;;;;;;;;3.00;2.00;;;;;;;;5023713;28;45795;-81
2022/08/26 17:25:29;;;;;;;;;3.00;2.00;;;;;;;;5020618;28;46218;-80
2022/08/26 17:27:55;;;;;;;;;2.67;2.00;;;;;;;;5022651;28;46228;-77
2022/08/26 17:30:21;;;;;;;;;3.00;3.00;;;;;;;;5020982;28;45721;-82
2022/08/26 17:32:46;;;;;;;;;2.50;2.50;;;;;;;;5020263;28;46107;-82
2022/08/26 17:35:12;;;;;;;;;2.00;2.00;;;;;;;;5016038;28;45915;-82